createdAt,value
2023-04-26T00:00:21.990Z,6.02
2023-04-26T00:05:27.133Z,6.03
2023-04-26T00:10:30.179Z,5.93
2023-04-26T00:15:33.228Z,6.00
2023-04-26T00:20:37.440Z,5.81
2023-04-26T00:25:40.489Z,5.78
2023-04-26T00:30:47.740Z,5.85
2023-04-26T00:35:52.042Z,5.70
2023-04-26T00:40:54.923Z,5.48
2023-04-26T00:45:58.808Z,5.64
2023-04-26T00:51:03.616Z,5.74
2023-04-26T00:56:08.257Z,5.57
2023-04-26T01:01:11.274Z,5.68
2023-04-26T01:06:15.616Z,5.55
2023-04-26T01:11:20.928Z,5.38
2023-04-26T01:16:25.104Z,5.33
2023-04-26T01:21:29.456Z,5.37
2023-04-26T01:26:33.891Z,5.35
2023-04-26T01:31:36.975Z,5.31
2023-04-26T01:36:40.013Z,5.19
2023-04-26T01:41:44.322Z,5.13
2023-04-26T01:46:47.394Z,4.74
2023-04-26T01:51:50.368Z,4.81
2023-04-26T01:56:54.671Z,4.80
2023-04-26T02:01:57.761Z,4.97
2023-04-26T02:07:00.682Z,5.02
2023-04-26T02:12:04.948Z,5.02
2023-04-26T02:17:08.988Z,4.74
2023-04-26T02:22:11.855Z,4.96
2023-04-26T02:27:19.213Z,4.66
2023-04-26T02:32:22.144Z,4.65
2023-04-26T02:37:25.139Z,4.72
2023-04-26T02:42:29.643Z,4.85
2023-04-26T02:47:32.825Z,4.69
2023-04-26T02:52:36.115Z,4.80
2023-04-26T02:57:41.709Z,4.62
2023-04-26T03:02:44.767Z,4.72
2023-04-26T03:07:47.774Z,4.67
2023-04-26T03:12:52.065Z,4.63
2023-04-26T03:17:55.052Z,4.75
2023-04-26T03:22:58.263Z,4.87
2023-04-26T03:28:03.947Z,4.85
2023-04-26T03:33:07.096Z,4.75
2023-04-26T03:38:10.071Z,4.80
2023-04-26T03:43:14.488Z,4.51
2023-04-26T03:48:17.804Z,4.57
2023-04-26T03:53:20.837Z,4.64
2023-04-26T03:58:26.113Z,4.64
2023-04-26T04:03:30.626Z,4.50
2023-04-26T04:08:33.883Z,4.60
2023-04-26T04:13:38.189Z,4.57
2023-04-26T04:18:41.159Z,4.52
2023-04-26T04:23:44.667Z,4.66
2023-04-26T04:28:52.095Z,5.22
2023-04-26T04:33:56.051Z,6.49
2023-04-26T04:38:59.289Z,7.70
2023-04-26T04:44:04.345Z,7.62
2023-04-26T04:49:09.467Z,7.86
2023-04-26T04:54:13.210Z,7.65
2023-04-26T04:59:17.666Z,7.81
2023-04-26T05:04:21.844Z,8.46
2023-04-26T05:09:25.261Z,8.51
2023-04-26T05:14:31.248Z,8.56
2023-04-26T05:19:34.536Z,7.86
2023-04-26T05:24:37.860Z,8.07
2023-04-26T05:29:42.599Z,8.85
2023-04-26T05:35:01.527Z,8.92
2023-04-26T05:40:08.006Z,9.57
2023-04-26T05:45:13.365Z,9.26
2023-04-26T05:50:17.327Z,9.42
2023-04-26T05:55:21.611Z,9.27
2023-04-26T06:00:27.209Z,9.96
2023-04-26T06:05:31.426Z,9.19
2023-04-26T06:10:37.392Z,8.54
2023-04-26T06:15:41.718Z,7.31
2023-04-26T06:20:44.602Z,7.82
2023-04-26T06:25:47.689Z,9.01
2023-04-26T06:30:52.008Z,8.49
2023-04-26T06:35:55.069Z,7.47
2023-04-26T06:40:58.137Z,7.54
2023-04-26T06:46:02.792Z,7.95
2023-04-26T06:51:08.913Z,7.60
2023-04-26T06:56:12.022Z,8.36
2023-04-26T07:01:16.386Z,8.16
2023-04-26T07:06:19.334Z,6.69
2023-04-26T07:11:24.588Z,7.58
2023-04-26T07:16:30.354Z,9.08
2023-04-26T07:21:33.717Z,8.38
2023-04-26T07:26:37.463Z,8.61
2023-04-26T07:31:41.803Z,9.50
2023-04-26T07:36:44.715Z,10.56
2023-04-26T07:41:47.622Z,8.57
2023-04-26T07:46:52.129Z,9.27
2023-04-26T07:51:56.437Z,8.67
2023-04-26T07:56:59.421Z,9.75
2023-04-26T08:02:03.720Z,8.20
2023-04-26T08:07:07.252Z,8.52
2023-04-26T08:12:10.430Z,8.76
2023-04-26T08:17:14.880Z,10.30
2023-04-26T08:22:18.010Z,9.82
2023-04-26T08:27:21.102Z,8.62
2023-04-26T08:32:25.432Z,7.90
2023-04-26T08:37:29.661Z,8.55
2023-04-26T08:42:34.242Z,7.65
2023-04-26T08:47:44.320Z,8.99
2023-04-26T08:52:49.659Z,9.55
2023-04-26T08:57:52.614Z,10.72
2023-04-26T09:02:56.967Z,11.73
2023-04-26T09:08:03.506Z,10.71
2023-04-26T09:13:06.388Z,10.23
2023-04-26T09:18:21.701Z,10.45
2023-04-26T09:23:24.605Z,11.10
2023-04-26T09:28:27.479Z,10.37
2023-04-26T09:33:31.719Z,10.24
2023-04-26T09:38:43.700Z,10.49
2023-04-26T09:43:46.629Z,10.05
2023-04-26T09:49:02.129Z,11.25
2023-04-26T09:54:05.119Z,10.72
2023-04-26T09:59:08.986Z,8.91
2023-04-26T10:04:13.435Z,9.61
2023-04-26T10:09:16.527Z,11.07
2023-04-26T10:14:19.520Z,11.32
2023-04-26T10:19:24.418Z,10.86
2023-04-26T10:24:27.364Z,9.88
2023-04-26T10:30:12.261Z,10.23
2023-04-26T10:35:17.820Z,10.72
2023-04-26T10:40:25.240Z,11.09
2023-04-26T10:45:30.109Z,11.97
2023-04-26T10:50:34.434Z,11.58
2023-04-26T10:55:41.740Z,10.23
2023-04-26T11:01:05.422Z,10.97
2023-04-26T11:06:13.790Z,9.95
2023-04-26T11:11:19.588Z,10.63
2023-04-26T11:16:26.658Z,11.00
2023-04-26T11:21:32.697Z,10.81
2023-04-26T11:26:36.614Z,11.21
2023-04-26T11:31:39.532Z,10.08
2023-04-26T11:36:46.407Z,12.14
2023-04-26T11:41:49.553Z,11.60
2023-04-26T11:46:53.066Z,11.31
2023-04-26T11:51:57.789Z,8.87
2023-04-26T11:57:01.133Z,9.70
2023-04-26T12:02:07.370Z,9.06
2023-04-26T12:07:11.780Z,9.52
2023-04-26T12:12:14.676Z,9.13
2023-04-26T12:17:17.643Z,9.94
2023-04-26T12:22:23.056Z,10.71
2023-04-26T12:27:26.248Z,10.25
2023-04-26T12:32:29.452Z,10.15
2023-04-26T12:37:33.787Z,9.82
2023-04-26T12:42:36.831Z,10.14
2023-04-26T12:47:39.838Z,10.13
2023-04-26T12:52:45.502Z,10.18
2023-04-26T12:57:48.600Z,10.49
2023-04-26T13:02:51.909Z,9.66
2023-04-26T13:07:56.527Z,9.34
2023-04-26T13:12:59.432Z,9.93
2023-04-26T13:18:02.441Z,10.77
2023-04-26T13:23:06.884Z,10.46
2023-04-26T13:28:10.157Z,10.98
2023-04-26T13:33:13.384Z,11.25
2023-04-26T13:38:18.080Z,11.41
2023-04-26T13:43:21.119Z,9.59
2023-04-26T13:48:24.470Z,10.51
2023-04-26T13:53:31.974Z,10.31
2023-04-26T13:58:34.950Z,10.87
2023-04-26T14:03:38.015Z,10.11
2023-04-26T14:08:42.425Z,10.18
2023-04-26T14:13:45.505Z,9.31
2023-04-26T14:18:48.668Z,9.78
2023-04-26T14:23:52.982Z,9.17
2023-04-26T14:28:55.843Z,9.43
2023-04-26T14:34:00.184Z,10.05
2023-04-26T14:39:04.523Z,9.44
2023-04-26T14:44:07.632Z,9.62
2023-04-26T14:49:10.603Z,10.26
2023-04-26T14:54:15.447Z,9.24
2023-04-26T14:59:18.549Z,9.87
2023-04-26T15:04:21.673Z,8.96
2023-04-26T15:09:27.494Z,8.90
2023-04-26T15:14:32.395Z,9.34
2023-04-26T15:19:35.269Z,9.85
2023-04-26T15:24:39.642Z,10.00
2023-04-26T15:29:42.594Z,10.08
2023-04-26T15:34:45.986Z,9.86
2023-04-26T15:39:50.272Z,9.58
2023-04-26T15:44:53.120Z,9.57
2023-04-26T15:49:56.160Z,9.87
2023-04-26T15:55:00.641Z,9.29
2023-04-26T16:00:05.898Z,8.92
2023-04-26T16:05:11.331Z,9.40
2023-04-26T16:10:16.333Z,9.14
2023-04-26T16:15:19.637Z,9.62
2023-04-26T16:20:22.764Z,9.75
2023-04-26T16:25:27.066Z,9.82
2023-04-26T16:30:30.030Z,9.26
2023-04-26T16:35:32.951Z,9.53
2023-04-26T16:40:37.200Z,9.12
2023-04-26T16:45:41.351Z,9.56
2023-04-26T16:50:44.270Z,9.73
2023-04-26T16:55:48.754Z,9.88
2023-04-26T17:00:52.125Z,9.60
2023-04-26T17:05:55.059Z,9.32
2023-04-26T17:10:59.267Z,9.39
2023-04-26T17:16:02.218Z,9.28
2023-04-26T17:21:05.827Z,9.40
2023-04-26T17:26:10.138Z,9.45
2023-04-26T17:31:13.084Z,9.21
2023-04-26T17:36:16.046Z,9.23
2023-04-26T17:41:20.759Z,9.27
2023-04-26T17:46:23.838Z,9.02
2023-04-26T17:51:26.923Z,8.96
2023-04-26T17:56:31.215Z,8.86
2023-04-26T18:01:34.265Z,8.91
2023-04-26T18:06:37.859Z,8.76
2023-04-26T18:11:47.575Z,8.82
2023-04-26T18:16:50.612Z,8.84
2023-04-26T18:21:56.762Z,8.66
2023-04-26T18:27:01.330Z,8.74
2023-04-26T18:32:04.254Z,8.78
2023-04-26T18:37:07.231Z,8.65
2023-04-26T18:42:11.793Z,8.63
2023-04-26T18:47:14.768Z,8.57
2023-04-26T18:52:18.802Z,8.50
2023-04-26T18:57:23.142Z,8.30
2023-04-26T19:02:26.312Z,8.15
2023-04-26T19:07:29.494Z,8.35
2023-04-26T19:12:33.822Z,8.45
2023-04-26T19:17:37.341Z,8.44
2023-04-26T19:22:41.722Z,8.41
2023-04-26T19:27:45.983Z,8.36
2023-04-26T19:32:48.985Z,8.38
2023-04-26T19:37:52.062Z,8.47
2023-04-26T19:42:56.382Z,8.47
2023-04-26T19:48:00.825Z,8.42
2023-04-26T19:53:03.814Z,8.41
2023-04-26T19:58:08.679Z,8.32
2023-04-26T20:03:11.716Z,8.16
2023-04-26T20:08:14.727Z,8.14
2023-04-26T20:13:18.966Z,8.13
2023-04-26T20:18:22.710Z,8.11
2023-04-26T20:23:25.763Z,7.92
2023-04-26T20:28:30.126Z,7.82
2023-04-26T20:33:32.990Z,7.71
2023-04-26T20:38:35.972Z,7.62
2023-04-26T20:43:40.471Z,7.52
2023-04-26T20:48:43.346Z,7.21
2023-04-26T20:53:46.250Z,7.07
2023-04-26T20:58:50.536Z,6.96
2023-04-26T21:03:53.594Z,6.68
2023-04-26T21:08:56.584Z,6.63
2023-04-26T21:14:00.964Z,6.27
2023-04-26T21:19:04.590Z,6.12
2023-04-26T21:24:07.577Z,6.12
2023-04-26T21:29:12.330Z,5.80
2023-04-26T21:34:15.219Z,6.07
2023-04-26T21:39:18.294Z,6.17
2023-04-26T21:44:22.609Z,6.04
2023-04-26T21:49:26.059Z,6.01
2023-04-26T21:54:29.024Z,5.92
2023-04-26T21:59:33.467Z,5.82
2023-04-26T22:04:36.438Z,5.63
2023-04-26T22:09:39.640Z,5.51
2023-04-26T22:14:43.982Z,5.49
2023-04-26T22:19:46.926Z,5.34
2023-04-26T22:24:49.764Z,5.23
2023-04-26T22:29:53.994Z,5.13
2023-04-26T22:34:56.884Z,4.93
2023-04-26T22:39:59.794Z,4.95
2023-04-26T22:45:04.058Z,4.77
2023-04-26T22:50:08.479Z,4.70
2023-04-26T22:56:20.038Z,4.71
2023-04-26T23:01:24.346Z,3.79
2023-04-26T23:06:28.063Z,4.24
2023-04-26T23:11:46.364Z,4.32
2023-04-26T23:16:50.784Z,4.26
2023-04-26T23:21:53.944Z,4.10
2023-04-26T23:26:56.856Z,4.21
2023-04-26T23:32:01.124Z,4.12
2023-04-26T23:37:07.040Z,4.03
2023-04-26T23:42:10.868Z,3.86
2023-04-26T23:47:15.096Z,3.83
2023-04-26T23:52:17.963Z,3.72
2023-04-26T23:57:20.989Z,3.67
